Kasugai, Japan
Current Conditions -  °F | °C
As of 4:00 PM on Friday 24 Oct 2014 (Local Time) from RJGG Reporting Station
Few Clouds Few Clouds  
Wind Chill: 68°   Ceiling: Unl
Heat Index: 68°   Visibility: 6mi
Dew Point: 54°   Wind: 6mph
Humidity: 60%   Direction: 210°SSW
Pressure: 30.09"   Gusts: NA
Location:  35.24°N, 136.98°E
Report Text: RJGG 240700Z 21005KT 9999 FEW030 20/12 Q1019 NOSIG
Loading
Personal Weather Stations






























Interactive Weather Map
Tropical Storm Tracking
New forecast layout! Learn more

10-Day Weather Forecast

Advertisements
Track Severe Weather on mobile